sensor_id;sensor_type;location;lat;lon;timestamp;P1;durP1;ratioP1;P2;durP2;ratioP2
13461;SDS011;6803;45.264;5.468;2022-09-09T00:01:23;6.27;;;1.40;;
13461;SDS011;6803;45.264;5.468;2022-09-09T00:04:00;4.43;;;1.10;;
13461;SDS011;6803;45.264;5.468;2022-09-09T00:06:42;1.90;;;1.00;;
13461;SDS011;6803;45.264;5.468;2022-09-09T00:09:10;6.63;;;1.40;;
13461;SDS011;6803;45.264;5.468;2022-09-09T00:11:42;3.63;;;0.90;;
13461;SDS011;6803;45.264;5.468;2022-09-09T00:14:18;8.20;;;1.43;;
13461;SDS011;6803;45.264;5.468;2022-09-09T00:16:53;3.50;;;1.17;;
13461;SDS011;6803;45.264;5.468;2022-09-09T00:19:28;4.47;;;1.47;;
13461;SDS011;6803;45.264;5.468;2022-09-09T00:22:05;6.53;;;1.40;;
13461;SDS011;6803;45.264;5.468;2022-09-09T00:24:43;3.93;;;0.77;;
13461;SDS011;6803;45.264;5.468;2022-09-09T00:27:18;3.03;;;0.93;;
13461;SDS011;6803;45.264;5.468;2022-09-09T00:29:52;7.63;;;1.20;;
13461;SDS011;6803;45.264;5.468;2022-09-09T00:32:27;5.50;;;1.07;;
13461;SDS011;6803;45.264;5.468;2022-09-09T00:35:00;3.43;;;1.00;;
13461;SDS011;6803;45.264;5.468;2022-09-09T00:37:32;2.57;;;1.07;;
13461;SDS011;6803;45.264;5.468;2022-09-09T00:40:07;2.50;;;0.90;;
13461;SDS011;6803;45.264;5.468;2022-09-09T00:42:40;4.17;;;1.00;;
13461;SDS011;6803;45.264;5.468;2022-09-09T00:45:18;1.87;;;1.10;;
13461;SDS011;6803;45.264;5.468;2022-09-09T00:47:53;9.37;;;1.17;;
13461;SDS011;6803;45.264;5.468;2022-09-09T00:50:41;3.93;;;1.10;;
13461;SDS011;6803;45.264;5.468;2022-09-09T00:53:18;2.47;;;1.17;;
13461;SDS011;6803;45.264;5.468;2022-09-09T00:55:54;2.47;;;1.03;;
13461;SDS011;6803;45.264;5.468;2022-09-09T00:58:27;1.27;;;0.90;;
13461;SDS011;6803;45.264;5.468;2022-09-09T01:01:00;7.90;;;1.20;;
13461;SDS011;6803;45.264;5.468;2022-09-09T01:03:34;3.30;;;0.90;;
13461;SDS011;6803;45.264;5.468;2022-09-09T01:06:14;4.43;;;1.10;;
13461;SDS011;6803;45.264;5.468;2022-09-09T01:11:57;3.90;;;1.23;;
13461;SDS011;6803;45.264;5.468;2022-09-09T01:14:33;8.27;;;1.60;;
13461;SDS011;6803;45.264;5.468;2022-09-09T01:17:11;5.50;;;1.23;;
13461;SDS011;6803;45.264;5.468;2022-09-09T01:19:49;3.83;;;1.33;;
13461;SDS011;6803;45.264;5.468;2022-09-09T01:22:25;7.47;;;1.40;;
13461;SDS011;6803;45.264;5.468;2022-09-09T01:25:09;4.53;;;0.90;;
13461;SDS011;6803;45.264;5.468;2022-09-09T01:27:47;7.83;;;1.33;;
13461;SDS011;6803;45.264;5.468;2022-09-09T01:30:19;8.07;;;1.53;;
13461;SDS011;6803;45.264;5.468;2022-09-09T01:32:53;5.20;;;1.10;;
13461;SDS011;6803;45.264;5.468;2022-09-09T01:35:35;3.77;;;1.20;;
13461;SDS011;6803;45.264;5.468;2022-09-09T01:38:08;5.40;;;1.93;;
13461;SDS011;6803;45.264;5.468;2022-09-09T01:40:39;3.53;;;1.13;;
13461;SDS011;6803;45.264;5.468;2022-09-09T01:43:09;2.40;;;1.00;;
13461;SDS011;6803;45.264;5.468;2022-09-09T01:45:40;2.63;;;1.53;;
13461;SDS011;6803;45.264;5.468;2022-09-09T01:48:13;3.43;;;1.30;;
13461;SDS011;6803;45.264;5.468;2022-09-09T01:50:44;4.07;;;0.83;;
13461;SDS011;6803;45.264;5.468;2022-09-09T01:53:15;2.97;;;1.10;;
13461;SDS011;6803;45.264;5.468;2022-09-09T01:55:48;6.50;;;1.20;;
13461;SDS011;6803;45.264;5.468;2022-09-09T01:58:24;9.20;;;1.43;;
13461;SDS011;6803;45.264;5.468;2022-09-09T02:01:02;4.50;;;1.07;;
13461;SDS011;6803;45.264;5.468;2022-09-09T02:03:33;4.70;;;1.13;;
13461;SDS011;6803;45.264;5.468;2022-09-09T02:06:08;3.73;;;1.20;;
13461;SDS011;6803;45.264;5.468;2022-09-09T02:08:42;7.53;;;1.40;;
13461;SDS011;6803;45.264;5.468;2022-09-09T02:11:15;4.13;;;1.40;;
13461;SDS011;6803;45.264;5.468;2022-09-09T02:13:48;4.10;;;1.37;;
13461;SDS011;6803;45.264;5.468;2022-09-09T02:16:22;1.50;;;1.07;;
13461;SDS011;6803;45.264;5.468;2022-09-09T02:18:55;5.73;;;0.90;;
13461;SDS011;6803;45.264;5.468;2022-09-09T02:21:29;4.37;;;1.27;;
13461;SDS011;6803;45.264;5.468;2022-09-09T02:24:03;5.10;;;1.10;;
13461;SDS011;6803;45.264;5.468;2022-09-09T02:26:39;5.93;;;1.30;;
13461;SDS011;6803;45.264;5.468;2022-09-09T02:29:13;4.40;;;1.10;;
13461;SDS011;6803;45.264;5.468;2022-09-09T02:31:45;5.77;;;1.20;;
13461;SDS011;6803;45.264;5.468;2022-09-09T02:34:18;10.13;;;1.40;;
13461;SDS011;6803;45.264;5.468;2022-09-09T02:36:52;5.23;;;1.67;;
13461;SDS011;6803;45.264;5.468;2022-09-09T02:39:25;3.50;;;1.20;;
13461;SDS011;6803;45.264;5.468;2022-09-09T02:41:56;3.87;;;1.40;;
13461;SDS011;6803;45.264;5.468;2022-09-09T02:44:27;4.43;;;1.43;;
13461;SDS011;6803;45.264;5.468;2022-09-09T02:47:10;1.43;;;1.00;;
13461;SDS011;6803;45.264;5.468;2022-09-09T02:49:47;0.90;;;0.90;;
13461;SDS011;6803;45.264;5.468;2022-09-09T02:52:20;3.87;;;1.10;;
13461;SDS011;6803;45.264;5.468;2022-09-09T02:54:54;2.03;;;1.10;;
13461;SDS011;6803;45.264;5.468;2022-09-09T02:57:27;2.73;;;1.33;;
13461;SDS011;6803;45.264;5.468;2022-09-09T03:00:01;2.17;;;1.47;;
13461;SDS011;6803;45.264;5.468;2022-09-09T03:02:32;1.93;;;1.10;;
13461;SDS011;6803;45.264;5.468;2022-09-09T03:05:04;13.17;;;2.47;;
13461;SDS011;6803;45.264;5.468;2022-09-09T03:07:36;5.57;;;1.10;;
13461;SDS011;6803;45.264;5.468;2022-09-09T03:10:08;2.33;;;1.33;;
13461;SDS011;6803;45.264;5.468;2022-09-09T03:12:39;8.30;;;1.67;;
13461;SDS011;6803;45.264;5.468;2022-09-09T03:15:10;9.43;;;1.80;;
13461;SDS011;6803;45.264;5.468;2022-09-09T03:17:40;4.97;;;1.57;;
13461;SDS011;6803;45.264;5.468;2022-09-09T03:20:11;11.13;;;1.53;;
13461;SDS011;6803;45.264;5.468;2022-09-09T03:22:42;3.87;;;1.30;;
13461;SDS011;6803;45.264;5.468;2022-09-09T03:25:13;5.23;;;1.30;;
13461;SDS011;6803;45.264;5.468;2022-09-09T03:27:43;6.63;;;1.40;;
13461;SDS011;6803;45.264;5.468;2022-09-09T03:30:14;3.40;;;1.40;;
13461;SDS011;6803;45.264;5.468;2022-09-09T03:32:45;2.17;;;1.10;;
13461;SDS011;6803;45.264;5.468;2022-09-09T03:35:16;8.43;;;1.70;;
13461;SDS011;6803;45.264;5.468;2022-09-09T03:37:47;7.13;;;1.40;;
13461;SDS011;6803;45.264;5.468;2022-09-09T03:40:18;2.40;;;1.10;;
13461;SDS011;6803;45.264;5.468;2022-09-09T03:42:48;2.83;;;1.40;;
13461;SDS011;6803;45.264;5.468;2022-09-09T03:45:19;10.63;;;1.40;;
13461;SDS011;6803;45.264;5.468;2022-09-09T03:47:50;5.20;;;1.23;;
13461;SDS011;6803;45.264;5.468;2022-09-09T03:50:20;6.23;;;1.33;;
13461;SDS011;6803;45.264;5.468;2022-09-09T03:52:51;6.57;;;1.30;;
13461;SDS011;6803;45.264;5.468;2022-09-09T03:55:21;3.47;;;1.20;;
13461;SDS011;6803;45.264;5.468;2022-09-09T03:57:52;5.00;;;1.40;;
13461;SDS011;6803;45.264;5.468;2022-09-09T04:00:23;5.27;;;1.40;;
13461;SDS011;6803;45.264;5.468;2022-09-09T04:02:54;1.77;;;1.43;;
13461;SDS011;6803;45.264;5.468;2022-09-09T04:05:25;2.70;;;1.23;;
13461;SDS011;6803;45.264;5.468;2022-09-09T04:07:56;8.50;;;1.20;;
13461;SDS011;6803;45.264;5.468;2022-09-09T04:10:26;4.97;;;2.33;;
13461;SDS011;6803;45.264;5.468;2022-09-09T04:12:57;3.40;;;1.33;;
13461;SDS011;6803;45.264;5.468;2022-09-09T04:15:28;2.23;;;1.13;;
13461;SDS011;6803;45.264;5.468;2022-09-09T04:17:59;6.90;;;1.63;;
13461;SDS011;6803;45.264;5.468;2022-09-09T04:20:30;3.70;;;1.20;;
13461;SDS011;6803;45.264;5.468;2022-09-09T04:23:00;6.50;;;1.40;;
13461;SDS011;6803;45.264;5.468;2022-09-09T04:25:32;2.63;;;1.17;;
13461;SDS011;6803;45.264;5.468;2022-09-09T04:28:02;4.07;;;1.17;;
13461;SDS011;6803;45.264;5.468;2022-09-09T04:30:33;4.77;;;1.10;;
13461;SDS011;6803;45.264;5.468;2022-09-09T04:33:04;5.80;;;1.60;;
13461;SDS011;6803;45.264;5.468;2022-09-09T04:35:34;3.23;;;1.27;;
13461;SDS011;6803;45.264;5.468;2022-09-09T04:38:05;4.67;;;2.03;;
13461;SDS011;6803;45.264;5.468;2022-09-09T04:40:37;3.20;;;1.13;;
13461;SDS011;6803;45.264;5.468;2022-09-09T04:43:09;2.47;;;1.10;;
13461;SDS011;6803;45.264;5.468;2022-09-09T04:45:41;3.80;;;1.23;;
13461;SDS011;6803;45.264;5.468;2022-09-09T04:48:12;5.13;;;1.10;;
13461;SDS011;6803;45.264;5.468;2022-09-09T04:50:43;5.47;;;1.33;;
13461;SDS011;6803;45.264;5.468;2022-09-09T04:53:15;4.40;;;1.60;;
13461;SDS011;6803;45.264;5.468;2022-09-09T04:55:46;2.17;;;1.73;;
13461;SDS011;6803;45.264;5.468;2022-09-09T04:58:17;6.07;;;1.63;;
13461;SDS011;6803;45.264;5.468;2022-09-09T05:00:49;4.17;;;1.20;;
13461;SDS011;6803;45.264;5.468;2022-09-09T05:03:20;3.23;;;1.37;;
13461;SDS011;6803;45.264;5.468;2022-09-09T05:05:50;2.00;;;1.27;;
13461;SDS011;6803;45.264;5.468;2022-09-09T05:08:21;2.00;;;1.10;;
13461;SDS011;6803;45.264;5.468;2022-09-09T05:10:52;3.70;;;1.30;;
13461;SDS011;6803;45.264;5.468;2022-09-09T05:13:23;3.37;;;1.20;;
13461;SDS011;6803;45.264;5.468;2022-09-09T05:15:53;4.17;;;1.40;;
13461;SDS011;6803;45.264;5.468;2022-09-09T05:18:24;5.57;;;1.30;;
13461;SDS011;6803;45.264;5.468;2022-09-09T05:20:59;2.77;;;1.23;;
13461;SDS011;6803;45.264;5.468;2022-09-09T05:23:29;3.90;;;1.40;;
13461;SDS011;6803;45.264;5.468;2022-09-09T05:26:00;1.90;;;1.03;;
13461;SDS011;6803;45.264;5.468;2022-09-09T05:28:33;2.53;;;1.40;;
13461;SDS011;6803;45.264;5.468;2022-09-09T05:31:05;1.40;;;1.30;;
13461;SDS011;6803;45.264;5.468;2022-09-09T05:33:36;1.60;;;1.33;;
13461;SDS011;6803;45.264;5.468;2022-09-09T05:36:08;9.90;;;1.50;;
13461;SDS011;6803;45.264;5.468;2022-09-09T05:38:41;5.10;;;1.60;;
13461;SDS011;6803;45.264;5.468;2022-09-09T05:41:13;2.90;;;1.47;;
13461;SDS011;6803;45.264;5.468;2022-09-09T05:43:45;7.00;;;1.70;;
13461;SDS011;6803;45.264;5.468;2022-09-09T05:46:17;3.37;;;1.40;;
13461;SDS011;6803;45.264;5.468;2022-09-09T05:48:49;2.97;;;1.30;;
13461;SDS011;6803;45.264;5.468;2022-09-09T05:51:22;3.27;;;1.40;;
13461;SDS011;6803;45.264;5.468;2022-09-09T05:53:54;3.27;;;1.97;;
13461;SDS011;6803;45.264;5.468;2022-09-09T05:56:27;1.80;;;1.27;;
13461;SDS011;6803;45.264;5.468;2022-09-09T05:58:58;2.73;;;1.60;;
13461;SDS011;6803;45.264;5.468;2022-09-09T06:01:30;3.87;;;1.77;;
13461;SDS011;6803;45.264;5.468;2022-09-09T06:04:02;2.90;;;1.27;;
13461;SDS011;6803;45.264;5.468;2022-09-09T06:06:33;5.00;;;1.50;;
13461;SDS011;6803;45.264;5.468;2022-09-09T06:09:08;2.37;;;1.37;;
13461;SDS011;6803;45.264;5.468;2022-09-09T06:11:39;2.23;;;1.50;;
13461;SDS011;6803;45.264;5.468;2022-09-09T06:14:10;5.90;;;1.47;;
13461;SDS011;6803;45.264;5.468;2022-09-09T06:16:41;3.10;;;1.30;;
13461;SDS011;6803;45.264;5.468;2022-09-09T06:19:12;1.77;;;1.50;;
13461;SDS011;6803;45.264;5.468;2022-09-09T06:21:43;4.03;;;1.20;;
13461;SDS011;6803;45.264;5.468;2022-09-09T06:24:15;6.07;;;1.70;;
13461;SDS011;6803;45.264;5.468;2022-09-09T06:26:47;3.17;;;1.27;;
13461;SDS011;6803;45.264;5.468;2022-09-09T06:29:17;6.73;;;1.50;;
13461;SDS011;6803;45.264;5.468;2022-09-09T06:31:48;4.93;;;1.67;;
13461;SDS011;6803;45.264;5.468;2022-09-09T06:34:19;5.23;;;1.67;;
13461;SDS011;6803;45.264;5.468;2022-09-09T06:36:49;2.90;;;1.40;;
13461;SDS011;6803;45.264;5.468;2022-09-09T06:39:20;4.37;;;1.57;;
13461;SDS011;6803;45.264;5.468;2022-09-09T06:41:50;1.43;;;1.33;;
13461;SDS011;6803;45.264;5.468;2022-09-09T06:44:21;4.73;;;1.50;;
13461;SDS011;6803;45.264;5.468;2022-09-09T06:46:53;4.13;;;1.50;;
13461;SDS011;6803;45.264;5.468;2022-09-09T06:49:24;3.53;;;1.53;;
13461;SDS011;6803;45.264;5.468;2022-09-09T06:51:55;1.40;;;1.20;;
13461;SDS011;6803;45.264;5.468;2022-09-09T06:54:25;5.37;;;1.40;;
13461;SDS011;6803;45.264;5.468;2022-09-09T06:56:56;5.30;;;2.00;;
13461;SDS011;6803;45.264;5.468;2022-09-09T06:59:29;1.77;;;1.60;;
13461;SDS011;6803;45.264;5.468;2022-09-09T07:02:00;3.47;;;1.50;;
13461;SDS011;6803;45.264;5.468;2022-09-09T07:04:31;3.40;;;1.40;;
13461;SDS011;6803;45.264;5.468;2022-09-09T07:07:01;5.50;;;1.40;;
13461;SDS011;6803;45.264;5.468;2022-09-09T07:09:32;2.17;;;1.30;;
13461;SDS011;6803;45.264;5.468;2022-09-09T07:12:03;3.93;;;1.70;;
13461;SDS011;6803;45.264;5.468;2022-09-09T07:14:34;5.00;;;1.80;;
13461;SDS011;6803;45.264;5.468;2022-09-09T07:17:05;4.20;;;1.70;;
13461;SDS011;6803;45.264;5.468;2022-09-09T07:19:36;2.43;;;1.50;;
13461;SDS011;6803;45.264;5.468;2022-09-09T07:22:06;4.37;;;1.57;;
13461;SDS011;6803;45.264;5.468;2022-09-09T07:24:38;9.97;;;2.33;;
13461;SDS011;6803;45.264;5.468;2022-09-09T07:27:08;3.90;;;1.53;;
13461;SDS011;6803;45.264;5.468;2022-09-09T07:29:39;4.27;;;1.40;;
13461;SDS011;6803;45.264;5.468;2022-09-09T07:32:10;9.27;;;2.07;;
13461;SDS011;6803;45.264;5.468;2022-09-09T07:34:41;3.80;;;1.33;;
13461;SDS011;6803;45.264;5.468;2022-09-09T07:37:11;2.43;;;1.37;;
13461;SDS011;6803;45.264;5.468;2022-09-09T07:39:42;3.40;;;1.23;;
13461;SDS011;6803;45.264;5.468;2022-09-09T07:42:13;4.50;;;1.33;;
13461;SDS011;6803;45.264;5.468;2022-09-09T07:44:44;3.03;;;1.03;;
13461;SDS011;6803;45.264;5.468;2022-09-09T07:47:14;8.13;;;2.23;;
13461;SDS011;6803;45.264;5.468;2022-09-09T07:49:45;4.90;;;1.20;;
13461;SDS011;6803;45.264;5.468;2022-09-09T07:52:17;4.67;;;1.30;;
13461;SDS011;6803;45.264;5.468;2022-09-09T07:54:49;4.07;;;1.50;;
13461;SDS011;6803;45.264;5.468;2022-09-09T07:57:20;2.50;;;1.10;;
13461;SDS011;6803;45.264;5.468;2022-09-09T07:59:50;4.37;;;1.30;;
13461;SDS011;6803;45.264;5.468;2022-09-09T08:02:21;5.00;;;1.43;;
13461;SDS011;6803;45.264;5.468;2022-09-09T08:04:53;3.67;;;1.53;;
13461;SDS011;6803;45.264;5.468;2022-09-09T08:07:24;3.10;;;1.27;;
13461;SDS011;6803;45.264;5.468;2022-09-09T08:09:55;2.93;;;1.10;;
13461;SDS011;6803;45.264;5.468;2022-09-09T08:12:25;4.17;;;1.10;;
13461;SDS011;6803;45.264;5.468;2022-09-09T08:14:56;3.27;;;0.93;;
13461;SDS011;6803;45.264;5.468;2022-09-09T08:17:27;2.57;;;1.23;;
13461;SDS011;6803;45.264;5.468;2022-09-09T08:19:58;3.70;;;1.50;;
13461;SDS011;6803;45.264;5.468;2022-09-09T08:22:30;2.33;;;1.07;;
13461;SDS011;6803;45.264;5.468;2022-09-09T08:25:02;4.20;;;1.23;;
13461;SDS011;6803;45.264;5.468;2022-09-09T08:30:23;5.13;;;1.30;;
13461;SDS011;6803;45.264;5.468;2022-09-09T08:32:54;9.37;;;1.77;;
13461;SDS011;6803;45.264;5.468;2022-09-09T08:35:24;4.10;;;1.20;;
13461;SDS011;6803;45.264;5.468;2022-09-09T08:37:57;5.63;;;1.50;;
13461;SDS011;6803;45.264;5.468;2022-09-09T08:40:28;2.33;;;1.10;;
13461;SDS011;6803;45.264;5.468;2022-09-09T08:43:01;3.50;;;1.13;;
13461;SDS011;6803;45.264;5.468;2022-09-09T08:45:34;2.20;;;1.00;;
13461;SDS011;6803;45.264;5.468;2022-09-09T08:48:33;5.17;;;1.10;;
13461;SDS011;6803;45.264;5.468;2022-09-09T08:51:09;5.53;;;1.20;;
13461;SDS011;6803;45.264;5.468;2022-09-09T08:53:41;6.33;;;1.27;;
13461;SDS011;6803;45.264;5.468;2022-09-09T08:56:16;4.10;;;1.20;;
13461;SDS011;6803;45.264;5.468;2022-09-09T08:58:49;6.07;;;1.20;;
13461;SDS011;6803;45.264;5.468;2022-09-09T09:01:32;8.30;;;1.30;;
13461;SDS011;6803;45.264;5.468;2022-09-09T09:04:14;4.77;;;1.23;;
13461;SDS011;6803;45.264;5.468;2022-09-09T09:07:03;4.17;;;1.47;;
13461;SDS011;6803;45.264;5.468;2022-09-09T09:09:40;4.07;;;1.00;;
13461;SDS011;6803;45.264;5.468;2022-09-09T09:12:16;2.17;;;1.10;;
13461;SDS011;6803;45.264;5.468;2022-09-09T09:14:48;3.87;;;1.20;;
13461;SDS011;6803;45.264;5.468;2022-09-09T09:17:19;3.13;;;1.03;;
13461;SDS011;6803;45.264;5.468;2022-09-09T09:19:52;5.17;;;0.90;;
13461;SDS011;6803;45.264;5.468;2022-09-09T09:22:23;3.63;;;1.20;;
13461;SDS011;6803;45.264;5.468;2022-09-09T09:24:59;2.70;;;0.77;;
13461;SDS011;6803;45.264;5.468;2022-09-09T09:27:33;1.57;;;0.80;;
13461;SDS011;6803;45.264;5.468;2022-09-09T09:30:12;2.47;;;0.50;;
13461;SDS011;6803;45.264;5.468;2022-09-09T09:32:49;2.83;;;0.70;;
13461;SDS011;6803;45.264;5.468;2022-09-09T09:35:22;2.83;;;0.90;;
13461;SDS011;6803;45.264;5.468;2022-09-09T09:37:53;0.90;;;0.63;;
13461;SDS011;6803;45.264;5.468;2022-09-09T09:40:25;2.53;;;0.73;;
13461;SDS011;6803;45.264;5.468;2022-09-09T09:42:57;2.93;;;0.70;;
13461;SDS011;6803;45.264;5.468;2022-09-09T09:45:32;3.83;;;0.80;;
13461;SDS011;6803;45.264;5.468;2022-09-09T09:48:03;4.40;;;0.83;;
13461;SDS011;6803;45.264;5.468;2022-09-09T09:50:39;2.10;;;0.60;;
13461;SDS011;6803;45.264;5.468;2022-09-09T09:53:19;8.13;;;1.37;;
13461;SDS011;6803;45.264;5.468;2022-09-09T09:55:54;3.23;;;0.90;;
13461;SDS011;6803;45.264;5.468;2022-09-09T09:58:27;2.10;;;0.60;;
13461;SDS011;6803;45.264;5.468;2022-09-09T10:01:01;1.77;;;0.63;;
13461;SDS011;6803;45.264;5.468;2022-09-09T10:03:34;2.07;;;1.00;;
13461;SDS011;6803;45.264;5.468;2022-09-09T10:06:07;3.20;;;0.87;;
13461;SDS011;6803;45.264;5.468;2022-09-09T10:08:44;1.17;;;0.70;;
13461;SDS011;6803;45.264;5.468;2022-09-09T10:11:21;4.77;;;0.90;;
13461;SDS011;6803;45.264;5.468;2022-09-09T10:13:57;2.00;;;0.90;;
13461;SDS011;6803;45.264;5.468;2022-09-09T10:16:34;3.47;;;0.80;;
13461;SDS011;6803;45.264;5.468;2022-09-09T10:19:10;1.73;;;0.80;;
13461;SDS011;6803;45.264;5.468;2022-09-09T10:21:51;2.57;;;0.67;;
13461;SDS011;6803;45.264;5.468;2022-09-09T10:27:42;1.97;;;0.70;;
13461;SDS011;6803;45.264;5.468;2022-09-09T10:30:18;1.10;;;0.70;;
13461;SDS011;6803;45.264;5.468;2022-09-09T10:32:53;1.50;;;0.70;;
13461;SDS011;6803;45.264;5.468;2022-09-09T10:35:28;2.30;;;0.50;;
13461;SDS011;6803;45.264;5.468;2022-09-09T10:38:08;4.17;;;0.97;;
13461;SDS011;6803;45.264;5.468;2022-09-09T10:41:09;1.73;;;0.67;;
13461;SDS011;6803;45.264;5.468;2022-09-09T10:44:10;3.77;;;0.67;;
13461;SDS011;6803;45.264;5.468;2022-09-09T10:46:54;0.37;;;0.33;;
13461;SDS011;6803;45.264;5.468;2022-09-09T10:49:43;1.05;;;0.50;;
13461;SDS011;6803;45.264;5.468;2022-09-09T10:52:40;1.22;;;0.65;;
13461;SDS011;6803;45.264;5.468;2022-09-09T10:55:19;2.53;;;0.60;;
13461;SDS011;6803;45.264;5.468;2022-09-09T10:57:55;5.93;;;1.00;;
13461;SDS011;6803;45.264;5.468;2022-09-09T11:00:35;1.43;;;0.90;;
13461;SDS011;6803;45.264;5.468;2022-09-09T11:03:11;0.90;;;0.55;;
13461;SDS011;6803;45.264;5.468;2022-09-09T11:05:45;1.32;;;0.68;;
13461;SDS011;6803;45.264;5.468;2022-09-09T11:08:19;0.62;;;0.62;;
13461;SDS011;6803;45.264;5.468;2022-09-09T11:10:52;2.90;;;1.07;;
13461;SDS011;6803;45.264;5.468;2022-09-09T11:13:32;2.43;;;0.83;;
13461;SDS011;6803;45.264;5.468;2022-09-09T11:16:04;2.75;;;0.80;;
13461;SDS011;6803;45.264;5.468;2022-09-09T11:18:37;3.42;;;0.62;;
13461;SDS011;6803;45.264;5.468;2022-09-09T11:21:12;1.67;;;0.75;;
13461;SDS011;6803;45.264;5.468;2022-09-09T11:23:47;1.87;;;0.72;;
13461;SDS011;6803;45.264;5.468;2022-09-09T11:26:21;4.53;;;0.87;;
13461;SDS011;6803;45.264;5.468;2022-09-09T11:29:05;2.43;;;0.80;;
13461;SDS011;6803;45.264;5.468;2022-09-09T11:31:46;0.70;;;0.62;;
13461;SDS011;6803;45.264;5.468;2022-09-09T11:34:30;2.27;;;0.70;;
13461;SDS011;6803;45.264;5.468;2022-09-09T11:37:23;1.30;;;0.47;;
13461;SDS011;6803;45.264;5.468;2022-09-09T11:40:17;1.23;;;0.90;;
13461;SDS011;6803;45.264;5.468;2022-09-09T11:43:01;1.02;;;0.68;;
13461;SDS011;6803;45.264;5.468;2022-09-09T11:45:34;1.72;;;0.70;;
13461;SDS011;6803;45.264;5.468;2022-09-09T11:48:10;1.15;;;0.65;;
13461;SDS011;6803;45.264;5.468;2022-09-09T11:50:42;1.22;;;0.47;;
13461;SDS011;6803;45.264;5.468;2022-09-09T11:53:21;3.87;;;0.70;;
13461;SDS011;6803;45.264;5.468;2022-09-09T11:56:05;1.32;;;0.50;;
13461;SDS011;6803;45.264;5.468;2022-09-09T11:58:39;2.17;;;0.93;;
13461;SDS011;6803;45.264;5.468;2022-09-09T12:01:14;0.85;;;0.72;;
13461;SDS011;6803;45.264;5.468;2022-09-09T12:04:00;0.93;;;0.70;;
13461;SDS011;6803;45.264;5.468;2022-09-09T12:06:42;1.55;;;0.62;;
13461;SDS011;6803;45.264;5.468;2022-09-09T12:09:17;2.05;;;0.88;;
13461;SDS011;6803;45.264;5.468;2022-09-09T12:11:52;1.40;;;0.70;;
13461;SDS011;6803;45.264;5.468;2022-09-09T12:14:35;1.85;;;0.82;;
13461;SDS011;6803;45.264;5.468;2022-09-09T12:17:10;1.57;;;0.75;;
13461;SDS011;6803;45.264;5.468;2022-09-09T12:20:03;2.62;;;0.90;;
13461;SDS011;6803;45.264;5.468;2022-09-09T12:25:56;2.65;;;1.07;;
13461;SDS011;6803;45.264;5.468;2022-09-09T12:28:44;2.55;;;0.70;;
13461;SDS011;6803;45.264;5.468;2022-09-09T12:31:20;1.55;;;0.90;;
13461;SDS011;6803;45.264;5.468;2022-09-09T12:33:54;3.58;;;0.80;;
13461;SDS011;6803;45.264;5.468;2022-09-09T12:36:27;2.12;;;0.80;;
13461;SDS011;6803;45.264;5.468;2022-09-09T12:39:09;1.85;;;0.70;;
13461;SDS011;6803;45.264;5.468;2022-09-09T12:41:39;1.07;;;0.57;;
13461;SDS011;6803;45.264;5.468;2022-09-09T12:44:10;0.85;;;0.42;;
13461;SDS011;6803;45.264;5.468;2022-09-09T12:46:41;0.82;;;0.40;;
13461;SDS011;6803;45.264;5.468;2022-09-09T12:49:26;1.70;;;0.50;;
13461;SDS011;6803;45.264;5.468;2022-09-09T12:52:02;0.82;;;0.60;;
13461;SDS011;6803;45.264;5.468;2022-09-09T12:54:36;1.67;;;0.60;;
13461;SDS011;6803;45.264;5.468;2022-09-09T12:57:09;1.62;;;0.55;;
13461;SDS011;6803;45.264;5.468;2022-09-09T12:59:42;0.82;;;0.57;;
13461;SDS011;6803;45.264;5.468;2022-09-09T13:02:21;0.88;;;0.47;;
13461;SDS011;6803;45.264;5.468;2022-09-09T13:04:53;2.08;;;0.78;;
13461;SDS011;6803;45.264;5.468;2022-09-09T13:07:25;1.85;;;0.72;;
13461;SDS011;6803;45.264;5.468;2022-09-09T13:09:56;1.25;;;0.45;;
13461;SDS011;6803;45.264;5.468;2022-09-09T13:12:27;4.20;;;0.70;;
13461;SDS011;6803;45.264;5.468;2022-09-09T13:14:58;5.40;;;1.25;;
13461;SDS011;6803;45.264;5.468;2022-09-09T13:17:30;2.17;;;0.68;;
13461;SDS011;6803;45.264;5.468;2022-09-09T13:20:01;2.27;;;0.93;;
13461;SDS011;6803;45.264;5.468;2022-09-09T13:22:33;1.60;;;0.55;;
13461;SDS011;6803;45.264;5.468;2022-09-09T13:25:17;0.78;;;0.35;;
13461;SDS011;6803;45.264;5.468;2022-09-09T13:27:54;1.22;;;0.50;;
13461;SDS011;6803;45.264;5.468;2022-09-09T13:30:28;1.15;;;0.45;;
13461;SDS011;6803;45.264;5.468;2022-09-09T13:33:05;3.12;;;0.80;;
13461;SDS011;6803;45.264;5.468;2022-09-09T13:35:52;2.08;;;1.12;;
13461;SDS011;6803;45.264;5.468;2022-09-09T13:38:24;1.15;;;0.65;;
13461;SDS011;6803;45.264;5.468;2022-09-09T13:40:57;0.60;;;0.30;;
13461;SDS011;6803;45.264;5.468;2022-09-09T13:43:31;1.05;;;0.50;;
13461;SDS011;6803;45.264;5.468;2022-09-09T13:46:06;0.85;;;0.42;;
13461;SDS011;6803;45.264;5.468;2022-09-09T13:48:55;1.22;;;0.50;;
13461;SDS011;6803;45.264;5.468;2022-09-09T13:51:32;2.15;;;0.70;;
13461;SDS011;6803;45.264;5.468;2022-09-09T13:54:05;1.95;;;0.60;;
13461;SDS011;6803;45.264;5.468;2022-09-09T13:56:38;1.25;;;0.60;;
13461;SDS011;6803;45.264;5.468;2022-09-09T13:59:11;1.20;;;0.42;;
13461;SDS011;6803;45.264;5.468;2022-09-09T14:01:43;1.60;;;0.90;;
13461;SDS011;6803;45.264;5.468;2022-09-09T14:04:13;1.77;;;0.53;;
13461;SDS011;6803;45.264;5.468;2022-09-09T14:06:44;1.02;;;0.30;;
13461;SDS011;6803;45.264;5.468;2022-09-09T14:09:15;1.15;;;0.65;;
13461;SDS011;6803;45.264;5.468;2022-09-09T14:11:48;2.77;;;0.70;;
13461;SDS011;6803;45.264;5.468;2022-09-09T14:14:18;1.37;;;0.45;;
13461;SDS011;6803;45.264;5.468;2022-09-09T14:16:49;0.95;;;0.37;;
13461;SDS011;6803;45.264;5.468;2022-09-09T14:19:21;2.83;;;0.57;;
13461;SDS011;6803;45.264;5.468;2022-09-09T14:21:52;6.03;;;0.90;;
13461;SDS011;6803;45.264;5.468;2022-09-09T14:24:23;3.10;;;0.72;;
13461;SDS011;6803;45.264;5.468;2022-09-09T14:26:54;1.15;;;0.62;;
13461;SDS011;6803;45.264;5.468;2022-09-09T14:29:25;1.27;;;0.50;;
13461;SDS011;6803;45.264;5.468;2022-09-09T14:31:55;4.20;;;0.72;;
13461;SDS011;6803;45.264;5.468;2022-09-09T14:34:28;1.15;;;0.72;;
13461;SDS011;6803;45.264;5.468;2022-09-09T14:37:00;1.55;;;0.30;;
13461;SDS011;6803;45.264;5.468;2022-09-09T14:39:31;1.02;;;0.47;;
13461;SDS011;6803;45.264;5.468;2022-09-09T14:42:01;1.40;;;0.50;;
13461;SDS011;6803;45.264;5.468;2022-09-09T14:44:33;2.98;;;0.60;;
13461;SDS011;6803;45.264;5.468;2022-09-09T14:47:03;0.80;;;0.57;;
13461;SDS011;6803;45.264;5.468;2022-09-09T14:49:35;1.27;;;0.57;;
13461;SDS011;6803;45.264;5.468;2022-09-09T14:52:08;2.42;;;0.50;;
13461;SDS011;6803;45.264;5.468;2022-09-09T14:54:39;2.05;;;0.68;;
13461;SDS011;6803;45.264;5.468;2022-09-09T14:57:09;1.37;;;0.47;;
13461;SDS011;6803;45.264;5.468;2022-09-09T14:59:40;2.02;;;0.57;;
13461;SDS011;6803;45.264;5.468;2022-09-09T15:02:12;1.72;;;0.60;;
13461;SDS011;6803;45.264;5.468;2022-09-09T15:04:45;1.98;;;0.55;;
13461;SDS011;6803;45.264;5.468;2022-09-09T15:07:18;1.35;;;0.53;;
13461;SDS011;6803;45.264;5.468;2022-09-09T15:09:50;4.25;;;0.55;;
13461;SDS011;6803;45.264;5.468;2022-09-09T15:12:21;1.25;;;0.45;;
13461;SDS011;6803;45.264;5.468;2022-09-09T15:14:52;2.40;;;0.60;;
13461;SDS011;6803;45.264;5.468;2022-09-09T15:17:23;1.27;;;0.40;;
13461;SDS011;6803;45.264;5.468;2022-09-09T15:19:54;1.40;;;0.42;;
13461;SDS011;6803;45.264;5.468;2022-09-09T15:25:03;1.50;;;0.78;;
13461;SDS011;6803;45.264;5.468;2022-09-09T15:30:13;0.80;;;0.40;;
13461;SDS011;6803;45.264;5.468;2022-09-09T15:32:47;0.72;;;0.45;;
13461;SDS011;6803;45.264;5.468;2022-09-09T15:35:24;1.42;;;0.50;;
13461;SDS011;6803;45.264;5.468;2022-09-09T15:38:02;0.72;;;0.30;;
13461;SDS011;6803;45.264;5.468;2022-09-09T15:40:33;0.37;;;0.30;;
13461;SDS011;6803;45.264;5.468;2022-09-09T15:43:04;1.07;;;0.30;;
13461;SDS011;6803;45.264;5.468;2022-09-09T15:45:37;1.32;;;0.42;;
13461;SDS011;6803;45.264;5.468;2022-09-09T15:48:08;1.32;;;0.55;;
13461;SDS011;6803;45.264;5.468;2022-09-09T15:50:39;2.67;;;0.40;;
13461;SDS011;6803;45.264;5.468;2022-09-09T15:53:10;1.27;;;0.50;;
13461;SDS011;6803;45.264;5.468;2022-09-09T15:55:43;2.30;;;0.53;;
13461;SDS011;6803;45.264;5.468;2022-09-09T15:58:16;0.60;;;0.37;;